createdAt,value
2022-07-29T00:02:19.356Z,96.00
2022-07-29T00:04:47.436Z,96.30
2022-07-29T00:07:15.635Z,96.10
2022-07-29T00:09:50.835Z,96.50
2022-07-29T00:12:21.421Z,96.50
2022-07-29T00:14:57.461Z,96.40
2022-07-29T00:17:26.122Z,96.00
2022-07-29T00:19:54.445Z,96.20
2022-07-29T00:22:22.854Z,96.40
2022-07-29T00:24:51.243Z,96.60
2022-07-29T00:27:19.875Z,97.20
2022-07-29T00:29:48.021Z,96.90
2022-07-29T00:32:17.462Z,97.30
2022-07-29T00:35:17.616Z,96.70
2022-07-29T00:37:45.669Z,96.50
2022-07-29T00:40:14.262Z,97.00
2022-07-29T00:42:45.976Z,96.50
2022-07-29T00:45:15.221Z,96.90
2022-07-29T00:47:44.807Z,97.30
2022-07-29T00:50:14.449Z,97.50
2022-07-29T00:52:44.778Z,97.60
2022-07-29T00:55:15.587Z,97.30
2022-07-29T00:57:44.797Z,97.60
2022-07-29T01:00:15.258Z,97.80
2022-07-29T01:02:44.878Z,97.80
2022-07-29T01:05:14.528Z,97.70
2022-07-29T01:07:43.066Z,97.80
2022-07-29T01:10:12.497Z,97.80
2022-07-29T01:12:40.916Z,98.10
2022-07-29T01:15:10.487Z,98.40
2022-07-29T01:17:52.491Z,98.20
2022-07-29T01:20:31.346Z,98.30
2022-07-29T01:23:33.971Z,98.30
2022-07-29T01:26:24.953Z,98.50
2022-07-29T01:29:16.113Z,98.70
2022-07-29T01:31:58.629Z,98.90
2022-07-29T01:34:33.336Z,99.20
2022-07-29T01:37:09.805Z,99.50
2022-07-29T01:39:40.706Z,99.50
2022-07-29T01:42:16.690Z,99.40
2022-07-29T01:44:56.210Z,99.00
2022-07-29T01:47:28.080Z,99.10
2022-07-29T01:50:00.350Z,99.10
2022-07-29T01:52:33.582Z,99.70
2022-07-29T01:55:08.438Z,99.60
2022-07-29T01:57:38.407Z,99.90
2022-07-29T02:00:09.743Z,99.90
2022-07-29T02:02:39.821Z,99.90
2022-07-29T02:05:10.210Z,99.90
2022-07-29T02:07:40.287Z,99.90
2022-07-29T02:10:11.370Z,99.90
2022-07-29T02:12:41.079Z,99.90
2022-07-29T02:15:13.255Z,99.90
2022-07-29T02:17:45.788Z,99.90
2022-07-29T02:20:15.479Z,99.90
2022-07-29T02:22:46.921Z,99.90
2022-07-29T02:25:16.659Z,99.90
2022-07-29T02:27:46.387Z,99.90
2022-07-29T02:30:16.219Z,99.90
2022-07-29T02:32:45.547Z,99.90
2022-07-29T02:35:17.047Z,99.90
2022-07-29T02:38:06.709Z,99.90
2022-07-29T02:40:36.591Z,99.90
2022-07-29T02:43:06.582Z,99.90
2022-07-29T02:45:36.387Z,99.90
2022-07-29T02:48:11.971Z,99.90
2022-07-29T02:50:45.651Z,99.90
2022-07-29T02:53:18.276Z,99.90
2022-07-29T02:55:50.815Z,99.90
2022-07-29T02:58:29.572Z,99.90
2022-07-29T03:01:03.443Z,99.90
2022-07-29T03:03:34.572Z,99.90
2022-07-29T03:06:04.411Z,99.90
2022-07-29T03:08:34.081Z,99.90
2022-07-29T03:11:03.689Z,99.90
2022-07-29T03:13:32.673Z,99.90
2022-07-29T03:16:03.821Z,99.90
2022-07-29T03:18:33.058Z,99.90
2022-07-29T03:21:01.402Z,99.90
2022-07-29T03:23:33.155Z,99.90
2022-07-29T03:26:05.027Z,99.90
2022-07-29T03:28:33.137Z,99.90
2022-07-29T03:31:03.872Z,99.90
2022-07-29T03:33:34.051Z,99.90
2022-07-29T03:36:03.373Z,99.90
2022-07-29T03:38:34.742Z,99.90
2022-07-29T03:41:06.716Z,99.90
2022-07-29T03:43:37.777Z,99.90
2022-07-29T03:46:11.090Z,99.90
2022-07-29T03:48:44.515Z,99.90
2022-07-29T03:51:12.771Z,99.90
2022-07-29T03:53:41.045Z,99.90
2022-07-29T03:56:11.065Z,99.90
2022-07-29T03:58:40.707Z,99.90
2022-07-29T04:01:11.031Z,99.90
2022-07-29T04:03:39.642Z,99.90
2022-07-29T04:06:08.887Z,99.90
2022-07-29T04:08:37.228Z,99.90
2022-07-29T04:11:06.698Z,99.90
2022-07-29T04:13:36.349Z,99.90
2022-07-29T04:16:04.522Z,99.90
2022-07-29T04:18:33.942Z,99.90
2022-07-29T04:21:02.194Z,99.90
2022-07-29T04:23:33.483Z,99.90
2022-07-29T04:26:02.047Z,99.90
2022-07-29T04:28:30.486Z,99.90
2022-07-29T04:30:58.571Z,99.90
2022-07-29T04:33:27.091Z,99.90
2022-07-29T04:35:56.637Z,99.90
2022-07-29T04:38:24.758Z,99.90
2022-07-29T04:40:52.859Z,99.90
2022-07-29T04:43:23.425Z,99.90
2022-07-29T04:45:51.750Z,99.90
2022-07-29T04:48:22.937Z,99.90
2022-07-29T04:50:56.063Z,99.90
2022-07-29T04:53:24.305Z,99.90
2022-07-29T04:55:52.466Z,99.90
2022-07-29T04:58:20.566Z,99.90
2022-07-29T05:00:48.681Z,96.80
2022-07-29T05:03:16.850Z,92.90
2022-07-29T05:05:45.003Z,92.30
2022-07-29T05:08:14.642Z,92.60
2022-07-29T05:10:42.921Z,92.20
2022-07-29T05:13:10.964Z,91.50
2022-07-29T05:15:39.914Z,90.20
2022-07-29T05:18:08.225Z,85.00
2022-07-29T05:20:36.551Z,83.20
2022-07-29T05:23:05.072Z,81.00
2022-07-29T05:25:43.364Z,77.50
2022-07-29T05:28:13.005Z,76.50
2022-07-29T05:30:41.279Z,74.50
2022-07-29T05:33:09.566Z,73.30
2022-07-29T05:36:00.600Z,72.30
2022-07-29T05:38:29.211Z,70.00
2022-07-29T05:41:00.906Z,68.80
2022-07-29T05:43:29.343Z,73.40
2022-07-29T05:45:57.762Z,87.50
2022-07-29T05:48:26.384Z,92.20
2022-07-29T05:50:54.754Z,90.60
2022-07-29T05:53:23.377Z,88.30
2022-07-29T05:55:51.901Z,87.80
2022-07-29T05:58:21.419Z,88.20
2022-07-29T06:00:49.702Z,85.20
2022-07-29T06:03:17.818Z,90.70
2022-07-29T06:05:45.892Z,90.40
2022-07-29T06:08:13.971Z,86.30
2022-07-29T06:10:41.999Z,81.00
2022-07-29T06:13:10.114Z,81.80
2022-07-29T06:15:39.811Z,92.40
2022-07-29T06:18:10.341Z,94.50
2022-07-29T06:20:39.191Z,94.50
2022-07-29T06:23:07.487Z,96.80
2022-07-29T06:25:37.725Z,98.10
2022-07-29T06:28:06.319Z,97.80
2022-07-29T06:30:34.870Z,97.70
2022-07-29T06:33:04.779Z,98.70
2022-07-29T06:35:39.329Z,98.30
2022-07-29T06:38:31.593Z,96.50
2022-07-29T06:41:02.201Z,92.80
2022-07-29T06:43:34.861Z,88.00
2022-07-29T06:46:04.947Z,90.30
2022-07-29T06:48:35.190Z,87.20
2022-07-29T06:51:03.713Z,90.80
2022-07-29T06:53:32.520Z,94.70
2022-07-29T06:56:01.254Z,93.60
2022-07-29T06:58:30.146Z,93.50
2022-07-29T07:00:59.468Z,95.10
2022-07-29T07:03:27.719Z,95.50
2022-07-29T07:05:57.409Z,93.70
2022-07-29T07:08:25.947Z,94.60
2022-07-29T07:10:54.388Z,93.00
2022-07-29T07:13:22.606Z,94.30
2022-07-29T07:15:51.835Z,85.00
2022-07-29T07:18:20.656Z,71.10
2022-07-29T07:20:48.752Z,65.40
2022-07-29T07:23:18.287Z,69.90
2022-07-29T07:25:46.438Z,62.70
2022-07-29T07:28:14.546Z,60.50
2022-07-29T07:30:42.605Z,62.40
2022-07-29T07:33:10.824Z,57.40
2022-07-29T07:35:39.014Z,68.50
2022-07-29T07:38:07.784Z,65.20
2022-07-29T07:40:38.058Z,63.80
2022-07-29T07:43:06.260Z,61.70
2022-07-29T07:45:34.786Z,57.40
2022-07-29T07:48:03.086Z,57.30
2022-07-29T07:50:31.225Z,59.80
2022-07-29T07:52:59.707Z,58.30
2022-07-29T07:55:28.236Z,56.70
2022-07-29T07:57:57.681Z,56.00
2022-07-29T08:00:25.913Z,55.20
2022-07-29T08:02:54.042Z,61.50
2022-07-29T08:05:22.203Z,60.60
2022-07-29T08:07:50.395Z,56.50
2022-07-29T08:10:40.453Z,56.60
2022-07-29T08:13:11.858Z,56.10
2022-07-29T08:15:41.985Z,57.60
2022-07-29T08:18:10.151Z,56.10
2022-07-29T08:20:39.358Z,55.00
2022-07-29T08:23:10.471Z,56.80
2022-07-29T08:25:40.545Z,55.00
2022-07-29T08:28:10.512Z,56.60
2022-07-29T08:30:38.581Z,57.40
2022-07-29T08:33:06.727Z,56.10
2022-07-29T08:35:35.568Z,54.10
2022-07-29T08:38:05.340Z,53.70
2022-07-29T08:40:33.589Z,56.40
2022-07-29T08:43:06.910Z,54.70
2022-07-29T08:45:48.134Z,56.10
2022-07-29T08:48:18.344Z,56.50
2022-07-29T08:50:47.410Z,57.70
2022-07-29T08:53:17.770Z,55.30
2022-07-29T08:55:47.579Z,60.80
2022-07-29T08:58:16.124Z,60.80
2022-07-29T09:00:48.584Z,57.90
2022-07-29T09:03:22.263Z,53.90
2022-07-29T09:05:50.900Z,52.10
2022-07-29T09:08:20.049Z,53.70
2022-07-29T09:10:48.224Z,52.30
2022-07-29T09:13:16.409Z,51.50
2022-07-29T09:15:46.366Z,53.50
2022-07-29T09:18:20.301Z,55.50
2022-07-29T09:21:16.724Z,53.90
2022-07-29T09:24:06.130Z,56.40
2022-07-29T09:26:35.112Z,58.00
2022-07-29T09:29:11.137Z,55.30
2022-07-29T09:31:42.229Z,57.00
2022-07-29T09:34:11.273Z,55.20
2022-07-29T09:36:43.444Z,55.30
2022-07-29T09:39:12.245Z,56.60
2022-07-29T09:41:54.025Z,54.70
2022-07-29T09:44:22.462Z,55.50
2022-07-29T09:47:00.204Z,54.70
2022-07-29T09:49:28.453Z,51.80
2022-07-29T09:52:06.197Z,49.90
2022-07-29T09:54:37.739Z,54.60
2022-07-29T09:57:07.513Z,57.10
2022-07-29T09:59:35.764Z,57.10
2022-07-29T10:02:17.727Z,57.20
2022-07-29T10:04:50.637Z,54.40
2022-07-29T10:07:18.715Z,52.20
2022-07-29T10:09:54.288Z,51.70
2022-07-29T10:12:22.360Z,54.70
2022-07-29T10:14:51.257Z,55.00
2022-07-29T10:17:21.154Z,53.10
2022-07-29T10:19:50.893Z,52.00
2022-07-29T10:22:43.640Z,49.80
2022-07-29T10:25:08.476Z,48.70
2022-07-29T10:27:37.717Z,45.80
2022-07-29T10:30:06.550Z,49.40
2022-07-29T10:32:54.267Z,56.40
2022-07-29T10:35:34.521Z,51.40
2022-07-29T10:38:29.646Z,51.20
2022-07-29T10:41:27.484Z,54.60
2022-07-29T10:44:03.368Z,58.40
2022-07-29T10:46:37.417Z,53.20
2022-07-29T10:49:11.268Z,55.80
2022-07-29T10:51:57.643Z,58.50
2022-07-29T10:54:53.556Z,53.20
2022-07-29T10:57:53.303Z,50.60
2022-07-29T11:00:34.853Z,50.60
2022-07-29T11:03:04.549Z,50.60
2022-07-29T11:05:59.421Z,48.10
2022-07-29T11:08:29.137Z,51.30
2022-07-29T11:11:39.646Z,49.40
2022-07-29T11:14:12.324Z,54.70
2022-07-29T11:17:06.283Z,56.30
2022-07-29T11:19:36.300Z,49.60
2022-07-29T11:22:10.730Z,48.20
2022-07-29T11:24:50.323Z,48.70
2022-07-29T11:27:21.230Z,47.50
2022-07-29T11:29:53.468Z,47.20
2022-07-29T11:32:23.394Z,45.30
2022-07-29T11:35:17.784Z,45.00
2022-07-29T11:37:52.576Z,47.50
2022-07-29T11:40:35.934Z,46.50
2022-07-29T11:43:07.463Z,45.00
2022-07-29T11:45:48.345Z,47.20
2022-07-29T11:48:32.082Z,46.90
2022-07-29T11:51:03.129Z,48.70
2022-07-29T11:53:32.640Z,47.20
2022-07-29T11:56:03.363Z,46.80
2022-07-29T11:58:32.611Z,50.50
2022-07-29T12:01:04.486Z,53.50
2022-07-29T12:03:36.146Z,49.50
2022-07-29T12:06:17.474Z,51.10
2022-07-29T12:08:47.437Z,50.50
2022-07-29T12:11:21.555Z,47.40
2022-07-29T12:13:50.714Z,48.00
2022-07-29T12:16:25.330Z,46.20
2022-07-29T12:18:59.699Z,45.60
2022-07-29T12:21:29.474Z,47.60
2022-07-29T12:24:04.787Z,50.90
2022-07-29T12:26:37.399Z,48.70
2022-07-29T12:29:11.498Z,48.40
2022-07-29T12:31:57.865Z,47.70
2022-07-29T12:34:30.437Z,48.40
2022-07-29T12:37:00.135Z,49.30
2022-07-29T12:39:29.075Z,48.20
2022-07-29T12:42:03.884Z,48.60
2022-07-29T12:44:47.328Z,48.50
2022-07-29T12:47:15.712Z,48.50
2022-07-29T12:49:43.748Z,48.90
2022-07-29T12:52:30.172Z,49.50
2022-07-29T12:54:58.912Z,48.50
2022-07-29T12:57:27.269Z,48.30
2022-07-29T13:00:03.887Z,48.50
2022-07-29T13:02:32.205Z,51.70
2022-07-29T13:05:01.391Z,51.10
2022-07-29T13:07:55.111Z,50.30
2022-07-29T13:10:24.384Z,50.00
2022-07-29T13:13:09.103Z,50.40
2022-07-29T13:15:37.824Z,52.40
2022-07-29T13:18:06.936Z,52.00
2022-07-29T13:20:36.071Z,50.50
2022-07-29T13:23:05.992Z,49.10
2022-07-29T13:25:35.355Z,51.80
2022-07-29T13:28:03.704Z,52.20
2022-07-29T13:30:31.854Z,48.50
2022-07-29T13:33:00.047Z,45.00
2022-07-29T13:35:30.667Z,45.70
2022-07-29T13:37:58.939Z,43.80
2022-07-29T13:40:30.131Z,45.60
2022-07-29T13:42:58.402Z,47.40
2022-07-29T13:45:29.118Z,49.40
2022-07-29T13:47:57.779Z,50.60
2022-07-29T13:50:26.202Z,49.20
2022-07-29T13:52:54.316Z,48.20
2022-07-29T13:55:22.531Z,48.60
2022-07-29T13:57:52.186Z,47.20
2022-07-29T14:00:20.925Z,46.90
2022-07-29T14:02:49.157Z,48.30
2022-07-29T14:05:17.561Z,49.50
2022-07-29T14:07:45.808Z,48.40
2022-07-29T14:10:18.410Z,47.30
2022-07-29T14:12:48.097Z,48.90
2022-07-29T14:15:18.437Z,51.80
2022-07-29T14:17:46.451Z,50.80
2022-07-29T14:20:16.485Z,49.70
2022-07-29T14:22:45.755Z,49.70
2022-07-29T14:25:15.553Z,47.00
2022-07-29T14:27:44.724Z,44.40
2022-07-29T14:30:13.567Z,46.40
2022-07-29T14:32:43.324Z,48.00
2022-07-29T14:35:11.608Z,50.30
2022-07-29T14:37:41.071Z,48.90
2022-07-29T14:40:10.731Z,48.20
2022-07-29T14:42:39.079Z,50.20
2022-07-29T14:45:08.912Z,50.20
2022-07-29T14:47:37.795Z,49.60
2022-07-29T14:50:08.567Z,50.40
2022-07-29T14:52:36.735Z,54.00
2022-07-29T14:55:16.507Z,54.70
2022-07-29T14:57:47.812Z,52.50
2022-07-29T15:00:16.742Z,53.10
2022-07-29T15:03:00.850Z,52.10
2022-07-29T15:05:32.047Z,51.30
2022-07-29T15:08:00.666Z,52.80
2022-07-29T15:10:29.011Z,50.30
2022-07-29T15:12:58.221Z,49.80
2022-07-29T15:15:26.947Z,50.20
2022-07-29T15:17:55.080Z,49.00
2022-07-29T15:20:26.138Z,49.50
2022-07-29T15:22:56.459Z,49.00
2022-07-29T15:25:25.054Z,49.40
2022-07-29T15:27:55.664Z,48.90
2022-07-29T15:30:29.030Z,50.40
2022-07-29T15:33:02.154Z,49.10
2022-07-29T15:35:30.420Z,50.60
2022-07-29T15:37:59.860Z,52.00
2022-07-29T15:40:28.002Z,51.80
2022-07-29T15:42:56.158Z,51.40
2022-07-29T15:45:24.380Z,51.30
2022-07-29T15:47:52.475Z,50.90
2022-07-29T15:50:21.334Z,50.70
2022-07-29T15:52:49.435Z,52.20
2022-07-29T15:55:18.996Z,51.90
2022-07-29T15:57:47.113Z,51.90
2022-07-29T16:00:17.520Z,51.10
2022-07-29T16:02:45.802Z,52.40
2022-07-29T16:05:14.157Z,53.10
2022-07-29T16:07:42.201Z,55.20
2022-07-29T16:10:10.747Z,54.60
2022-07-29T16:12:40.289Z,55.10
2022-07-29T16:15:10.893Z,53.70
2022-07-29T16:17:39.453Z,54.10
2022-07-29T16:20:08.780Z,55.30
2022-07-29T16:22:38.691Z,55.80
2022-07-29T16:25:07.808Z,55.40
2022-07-29T16:27:37.878Z,55.30
2022-07-29T16:30:09.959Z,56.30
2022-07-29T16:32:38.068Z,56.70
2022-07-29T16:35:07.127Z,57.20
2022-07-29T16:37:36.569Z,57.40
2022-07-29T16:40:06.150Z,56.80
2022-07-29T16:42:46.706Z,57.60
2022-07-29T16:45:17.972Z,57.20
2022-07-29T16:47:46.288Z,58.30
2022-07-29T16:50:14.430Z,57.90
2022-07-29T16:52:42.667Z,57.70
2022-07-29T16:55:10.965Z,57.70
2022-07-29T16:57:38.969Z,57.50
2022-07-29T17:00:08.380Z,57.80
2022-07-29T17:02:38.747Z,57.90
2022-07-29T17:05:07.830Z,58.10
2022-07-29T17:07:35.997Z,58.60
2022-07-29T17:10:05.476Z,59.20
2022-07-29T17:12:33.621Z,60.60
2022-07-29T17:15:01.769Z,61.40
2022-07-29T17:17:38.710Z,60.90
2022-07-29T17:20:19.298Z,60.70
2022-07-29T17:22:47.443Z,61.20
2022-07-29T17:25:20.689Z,62.70
2022-07-29T17:27:49.659Z,63.40
2022-07-29T17:30:17.954Z,64.30
2022-07-29T17:32:46.186Z,65.90
2022-07-29T17:35:31.597Z,66.10
2022-07-29T17:38:01.157Z,66.50
2022-07-29T17:40:29.284Z,67.80
2022-07-29T17:42:57.347Z,68.10
2022-07-29T17:45:25.509Z,68.20
2022-07-29T17:47:53.591Z,68.90
2022-07-29T17:50:21.676Z,69.90
2022-07-29T17:52:49.732Z,70.50
2022-07-29T17:55:19.381Z,70.00
2022-07-29T17:57:47.518Z,70.90
2022-07-29T18:00:17.536Z,71.40
2022-07-29T18:02:45.625Z,70.30
2022-07-29T18:05:13.756Z,71.20
2022-07-29T18:07:41.842Z,70.30
2022-07-29T18:10:10.610Z,71.00
2022-07-29T18:12:40.022Z,71.00
2022-07-29T18:15:08.675Z,71.00
2022-07-29T18:17:53.001Z,71.70
2022-07-29T18:20:24.898Z,72.20
2022-07-29T18:22:53.095Z,71.80
2022-07-29T18:25:21.274Z,72.20
2022-07-29T18:27:50.935Z,72.80
2022-07-29T18:30:19.267Z,72.20
2022-07-29T18:33:18.108Z,72.00
2022-07-29T18:35:37.504Z,72.30
2022-07-29T18:38:06.037Z,72.90
2022-07-29T18:40:34.478Z,73.60
2022-07-29T18:43:03.874Z,74.40
2022-07-29T18:45:31.998Z,73.50
2022-07-29T18:48:00.934Z,74.30
2022-07-29T18:50:29.970Z,76.30
2022-07-29T18:53:01.080Z,76.60
2022-07-29T18:55:29.171Z,76.60
2022-07-29T18:57:57.674Z,77.60
2022-07-29T19:00:28.348Z,78.20
2022-07-29T19:02:57.148Z,78.70
2022-07-29T19:05:26.400Z,79.00
2022-07-29T19:07:55.164Z,80.70
2022-07-29T19:10:23.461Z,80.70
2022-07-29T19:12:51.678Z,80.70
2022-07-29T19:15:20.351Z,81.20
2022-07-29T19:17:50.226Z,81.60
2022-07-29T19:20:18.519Z,82.50
2022-07-29T19:22:47.217Z,83.60
2022-07-29T19:25:15.463Z,84.40
2022-07-29T19:27:43.586Z,85.30
2022-07-29T19:30:12.345Z,86.30
2022-07-29T19:32:40.590Z,86.30
2022-07-29T19:35:27.971Z,87.90
2022-07-29T19:37:57.406Z,89.10
2022-07-29T19:40:26.767Z,89.10
2022-07-29T19:42:55.613Z,90.40
2022-07-29T19:45:25.694Z,90.60
2022-07-29T19:47:57.661Z,91.00
2022-07-29T19:50:30.804Z,91.30
2022-07-29T19:52:59.491Z,91.70
2022-07-29T19:55:27.686Z,92.40
2022-07-29T19:57:55.923Z,92.80
2022-07-29T20:00:25.188Z,93.00
2022-07-29T20:02:53.837Z,93.40
2022-07-29T20:05:22.117Z,93.40
2022-07-29T20:07:57.948Z,94.20
2022-07-29T20:10:26.682Z,94.30
2022-07-29T20:12:55.459Z,94.80
2022-07-29T20:15:23.903Z,95.30
2022-07-29T20:17:56.982Z,95.30
2022-07-29T20:20:26.335Z,95.60
2022-07-29T20:22:54.995Z,96.20
2022-07-29T20:25:24.818Z,96.70
2022-07-29T20:27:54.293Z,96.90
2022-07-29T20:30:23.356Z,97.70
2022-07-29T20:32:51.467Z,98.30
2022-07-29T20:35:21.644Z,98.50
2022-07-29T20:37:52.508Z,98.60
2022-07-29T20:40:26.655Z,99.90
2022-07-29T20:42:55.332Z,99.90
2022-07-29T20:45:24.519Z,99.90
2022-07-29T20:47:53.296Z,99.90
2022-07-29T20:50:23.997Z,99.90
2022-07-29T20:52:52.915Z,99.90
2022-07-29T20:55:21.108Z,99.90
2022-07-29T20:57:50.579Z,99.90
2022-07-29T21:00:18.921Z,99.90
2022-07-29T21:02:47.334Z,99.90
2022-07-29T21:05:15.959Z,99.90
2022-07-29T21:07:44.071Z,99.90
2022-07-29T21:10:12.256Z,99.90
2022-07-29T21:12:40.290Z,99.90
2022-07-29T21:15:13.421Z,99.90
2022-07-29T21:17:46.753Z,99.90
2022-07-29T21:20:15.609Z,99.90
2022-07-29T21:22:44.062Z,99.90
2022-07-29T21:25:13.098Z,99.90
2022-07-29T21:27:58.444Z,99.90
2022-07-29T21:30:28.041Z,99.90
2022-07-29T21:32:56.155Z,99.90
2022-07-29T21:35:46.480Z,99.90
2022-07-29T21:38:12.783Z,99.90
2022-07-29T21:40:40.920Z,99.90
2022-07-29T21:43:08.977Z,99.90
2022-07-29T21:45:39.572Z,99.90
2022-07-29T21:48:08.034Z,99.90
2022-07-29T21:50:36.913Z,99.90
2022-07-29T21:53:04.997Z,99.90
2022-07-29T21:55:34.084Z,99.90
2022-07-29T21:58:02.259Z,99.90
2022-07-29T22:00:31.117Z,99.90
2022-07-29T22:03:01.309Z,99.90
2022-07-29T22:05:30.280Z,99.90
2022-07-29T22:07:58.398Z,99.90
2022-07-29T22:10:27.699Z,99.90
2022-07-29T22:12:58.944Z,99.90
2022-07-29T22:15:28.106Z,99.90
2022-07-29T22:17:56.199Z,99.90
2022-07-29T22:20:25.971Z,99.90
2022-07-29T22:22:54.188Z,99.90
2022-07-29T22:25:22.905Z,99.90
2022-07-29T22:27:51.027Z,99.90
2022-07-29T22:30:19.237Z,99.90
2022-07-29T22:32:47.886Z,99.90
2022-07-29T22:35:16.090Z,99.90
2022-07-29T22:37:45.699Z,99.90
2022-07-29T22:40:14.150Z,99.90
2022-07-29T22:42:42.221Z,99.90
2022-07-29T22:45:11.234Z,99.90
2022-07-29T22:47:47.973Z,99.90
2022-07-29T22:50:17.927Z,99.90
2022-07-29T22:52:47.523Z,99.90
2022-07-29T22:55:16.203Z,99.90
2022-07-29T22:57:44.297Z,99.90
2022-07-29T23:00:13.668Z,99.90
2022-07-29T23:02:42.156Z,99.90
2022-07-29T23:05:11.340Z,99.90
2022-07-29T23:07:39.609Z,99.90
2022-07-29T23:10:10.092Z,99.90
2022-07-29T23:12:38.547Z,99.90
2022-07-29T23:15:07.823Z,99.90
2022-07-29T23:17:36.807Z,99.90
2022-07-29T23:20:07.900Z,99.90
2022-07-29T23:22:36.479Z,99.90
2022-07-29T23:25:06.253Z,99.90
2022-07-29T23:27:35.824Z,99.90
2022-07-29T23:30:04.346Z,99.90
2022-07-29T23:32:32.444Z,99.90
2022-07-29T23:35:00.570Z,99.90
2022-07-29T23:37:28.732Z,99.90
2022-07-29T23:39:57.137Z,99.90
2022-07-29T23:42:25.237Z,99.90
2022-07-29T23:44:54.678Z,99.90
2022-07-29T23:47:22.724Z,99.90
2022-07-29T23:49:50.879Z,99.90
2022-07-29T23:52:19.225Z,99.90
2022-07-29T23:54:47.497Z,99.90
2022-07-29T23:57:15.576Z,99.90
2022-07-29T23:59:43.812Z,99.90
